Time;durP1;ratioP1;P1;durP2;ratioP2;P2;SDS_P1;SDS_P2;PMS_P1;PMS_P2;Temp;Humidity;BMP_temperature;BMP_pressure;BME280_temperature;BME280_humidity;BME280_pressure;Samples;Min_cycle;Max_cycle;Signal;HPM_P1;HPM_P2
2022/03/29 00:00:13;;;;;;;0.85;0.47;;;24.90;77.00;;;;;;4232415;27;20048;-71
2022/03/29 00:02:35;;;;;;;2.38;0.63;;;24.90;77.00;;;;;;4226962;27;20034;-72
2022/03/29 00:05:02;;;;;;;0.40;0.40;;;24.90;76.90;;;;;;4231630;27;20777;-73
2022/03/29 00:07:24;;;;;;;0.70;0.50;;;24.90;76.90;;;;;;4230677;27;20057;-73
2022/03/29 00:09:47;;;;;;;0.47;0.28;;;24.90;76.90;;;;;;4227567;27;20249;-71
2022/03/29 00:12:09;;;;;;;0.35;0.32;;;24.90;76.80;;;;;;4233688;27;20049;-71
2022/03/29 00:14:32;;;;;;;0.40;0.40;;;24.80;76.70;;;;;;4231745;27;20038;-72
2022/03/29 00:16:54;;;;;;;0.88;0.60;;;24.80;76.80;;;;;;4229439;27;20126;-72
2022/03/29 00:19:17;;;;;;;1.35;0.43;;;24.80;76.70;;;;;;4235672;27;20049;-71
2022/03/29 00:21:39;;;;;;;1.13;0.40;;;24.80;76.70;;;;;;4236133;27;20129;-72
2022/03/29 00:24:02;;;;;;;0.32;0.20;;;24.80;76.60;;;;;;4224948;27;20107;-73
2022/03/29 00:26:25;;;;;;;0.68;0.40;;;24.80;76.70;;;;;;4232777;27;20932;-71
2022/03/29 00:28:48;;;;;;;1.13;0.57;;;24.80;76.60;;;;;;4232935;27;20121;-74
2022/03/29 00:31:12;;;;;;;13.85;2.60;;;24.80;76.60;;;;;;4226921;27;20286;-72
2022/03/29 00:33:33;;;;;;;;;;;24.80;76.70;;;;;;4227998;27;21855;-73
2022/03/29 00:35:56;;;;;;;35.55;6.43;;;24.70;76.80;;;;;;4229312;27;19914;-70
2022/03/29 00:38:19;;;;;;;28.30;6.55;;;24.80;77.10;;;;;;4221276;27;20083;-70
2022/03/29 00:40:41;;;;;;;26.75;6.72;;;24.80;77.20;;;;;;4223540;27;20034;-69
2022/03/29 00:43:05;;;;;;;26.33;6.85;;;24.80;77.20;;;;;;4231197;27;20143;-72
2022/03/29 00:45:27;;;;;;;16.77;4.97;;;24.80;77.40;;;;;;4218444;27;20073;-64
2022/03/29 00:47:50;;;;;;;20.02;6.40;;;24.80;77.40;;;;;;4219568;27;20555;-66
2022/03/29 00:50:12;;;;;;;15.80;5.45;;;24.80;77.40;;;;;;4223929;27;21795;-68
2022/03/29 00:52:38;;;;;;;14.73;4.65;;;24.80;77.30;;;;;;4216713;27;20054;-69
2022/03/29 00:55:00;;;;;;;12.10;4.05;;;24.80;77.40;;;;;;4209031;27;20042;-68
2022/03/29 00:57:23;;;;;;;14.30;4.22;;;24.80;77.40;;;;;;4232064;27;20740;-68
2022/03/29 00:59:46;;;;;;;19.73;4.57;;;24.90;77.40;;;;;;4223871;27;20073;-70
2022/03/29 01:02:09;;;;;;;14.43;4.22;;;24.90;77.70;;;;;;4221822;27;20038;-67
2022/03/29 01:04:32;;;;;;;11.98;3.33;;;24.90;77.50;;;;;;4233638;27;20054;-68
2022/03/29 01:06:58;;;;;;;10.10;3.50;;;24.90;77.60;;;;;;4226577;27;21005;-65
2022/03/29 01:09:21;;;;;;;11.02;3.58;;;24.90;77.50;;;;;;4232139;27;20042;-64
2022/03/29 01:11:44;;;;;;;10.02;3.55;;;24.90;77.60;;;;;;4231447;27;20034;-65
2022/03/29 01:14:06;;;;;;;9.55;2.78;;;24.90;77.50;;;;;;4208370;27;20039;-70
2022/03/29 01:19:12;;;;;;;9.30;3.40;;;25.00;77.50;;;;;;4224408;27;20102;-65
2022/03/29 01:21:38;;;;;;;9.13;2.88;;;25.00;77.40;;;;;;4235971;27;20109;-69
2022/03/29 01:24:02;;;;;;;11.90;3.03;;;25.00;77.40;;;;;;4227135;27;20041;-70
2022/03/29 01:26:25;;;;;;;9.15;2.78;;;25.10;77.50;;;;;;4230230;27;21375;-69
2022/03/29 01:28:48;;;;;;;6.23;2.60;;;25.10;77.40;;;;;;4231003;27;20042;-69
2022/03/29 01:31:11;;;;;;;7.73;2.73;;;25.10;77.40;;;;;;4213403;27;20095;-67
2022/03/29 01:33:34;;;;;;;11.02;3.20;;;25.10;78.00;;;;;;4232685;27;20362;-65
2022/03/29 01:35:57;;;;;;;6.82;2.75;;;25.10;77.60;;;;;;4234921;27;20038;-66
2022/03/29 01:38:19;;;;;;;8.65;3.15;;;25.10;77.70;;;;;;4230747;27;20062;-66
2022/03/29 01:40:42;;;;;;;7.20;3.10;;;25.20;77.70;;;;;;4234066;27;20042;-69
2022/03/29 01:43:05;;;;;;;7.07;2.75;;;25.20;77.70;;;;;;4238268;27;20042;-63
2022/03/29 01:45:29;;;;;;;7.33;2.60;;;25.20;77.60;;;;;;4231805;27;20050;-67
2022/03/29 01:47:52;;;;;;;7.38;3.05;;;25.20;77.70;;;;;;4222172;27;20034;-66
2022/03/29 01:50:16;;;;;;;8.32;2.40;;;25.20;77.90;;;;;;4236410;27;20074;-62
2022/03/29 01:52:40;;;;;;;5.72;2.65;;;25.20;77.80;;;;;;4232041;27;20042;-63
2022/03/29 01:55:02;;;;;;;3.25;2.08;;;25.30;77.80;;;;;;4244811;27;20130;-65
2022/03/29 01:57:28;;;;;;;4.85;2.53;;;25.30;77.70;;;;;;4242566;27;20161;-68
2022/03/29 02:02:46;;;;;;;3.35;1.63;;;25.30;77.60;;;;;;4205445;27;20939;-64
2022/03/29 02:05:22;;;;;;;6.95;1.92;;;25.30;77.60;;;;;;4244276;27;20737;-68
2022/03/29 02:08:01;;;;;;;4.63;1.70;;;25.30;77.60;;;;;;4235762;27;20145;-66
2022/03/29 02:10:25;;;;;;;2.05;1.55;;;25.40;77.70;;;;;;4234078;27;21847;-67
2022/03/29 02:12:51;;;;;;;2.55;1.23;;;25.30;77.60;;;;;;4240865;27;20030;-68
2022/03/29 02:15:15;;;;;;;2.65;1.45;;;25.40;77.60;;;;;;4234665;27;20087;-66
2022/03/29 02:17:37;;;;;;;4.07;1.42;;;25.40;77.50;;;;;;4241879;27;20042;-64
2022/03/29 02:20:00;;;;;;;3.15;1.30;;;25.40;77.50;;;;;;4237049;27;20034;-70
2022/03/29 02:22:23;;;;;;;3.53;1.20;;;25.40;77.50;;;;;;4235589;27;20977;-67
2022/03/29 02:24:45;;;;;;;1.70;1.00;;;25.40;77.60;;;;;;4239119;27;20568;-64
2022/03/29 02:27:07;;;;;;;3.03;1.02;;;25.40;77.50;;;;;;4236347;27;20034;-69
2022/03/29 02:29:30;;;;;;;5.18;1.25;;;25.40;77.40;;;;;;4232887;27;20027;-63
2022/03/29 02:31:53;;;;;;;0.88;0.80;;;25.40;77.40;;;;;;4240321;27;20045;-63
2022/03/29 02:34:15;;;;;;;4.43;1.30;;;25.50;77.40;;;;;;4235464;27;20030;-64
2022/03/29 02:36:38;;;;;;;5.22;1.05;;;25.50;77.40;;;;;;4240141;27;20235;-64
2022/03/29 02:39:00;;;;;;;1.75;0.88;;;25.50;77.30;;;;;;4244669;27;20060;-64
2022/03/29 02:41:23;;;;;;;2.08;0.82;;;25.40;77.20;;;;;;4240994;27;20030;-64
2022/03/29 02:43:45;;;;;;;1.13;0.52;;;25.50;77.30;;;;;;4221845;27;20054;-62
2022/03/29 02:46:08;;;;;;;1.20;0.70;;;25.50;77.30;;;;;;4223668;27;20060;-62
2022/03/29 02:48:31;;;;;;;2.05;1.00;;;25.50;77.30;;;;;;4223222;27;20058;-63
2022/03/29 02:50:53;;;;;;;1.30;0.68;;;25.40;77.30;;;;;;4200969;27;20038;-65
2022/03/29 02:53:16;;;;;;;1.02;0.70;;;25.50;77.40;;;;;;4218958;27;21214;-63
2022/03/29 02:55:39;;;;;;;4.40;1.20;;;25.50;77.50;;;;;;4223239;27;20034;-67
2022/03/29 02:58:01;;;;;;;2.47;0.40;;;25.50;77.50;;;;;;4200122;27;20046;-64
2022/03/29 03:00:24;;;;;;;2.90;0.70;;;25.50;77.50;;;;;;4210098;27;20719;-63
2022/03/29 03:02:48;;;;;;;0.60;0.43;;;25.60;77.50;;;;;;4224501;27;20069;-67
2022/03/29 03:05:11;;;;;;;0.65;0.40;;;25.60;77.40;;;;;;4212853;27;20053;-64
2022/03/29 03:07:33;;;;;;;1.20;0.60;;;25.60;77.30;;;;;;4215188;27;20133;-67
2022/03/29 03:09:56;;;;;;;3.47;1.00;;;25.60;77.30;;;;;;4223696;27;20098;-65
2022/03/29 03:12:19;;;;;;;1.23;0.57;;;25.60;77.30;;;;;;4215612;27;20121;-65
2022/03/29 03:14:42;;;;;;;1.45;0.75;;;25.60;77.20;;;;;;4215872;27;20129;-64
2022/03/29 03:17:05;;;;;;;0.70;0.60;;;25.70;77.40;;;;;;4227033;27;20054;-66
2022/03/29 03:19:27;;;;;;;0.52;0.52;;;25.70;77.50;;;;;;4217629;27;20869;-67
2022/03/29 03:21:50;;;;;;;2.05;1.08;;;25.70;77.30;;;;;;4212942;27;20022;-73
2022/03/29 03:24:13;;;;;;;2.58;0.93;;;25.70;77.20;;;;;;4224722;27;20046;-72
2022/03/29 03:26:36;;;;;;;3.20;0.80;;;25.70;77.40;;;;;;4214932;27;20041;-69
2022/03/29 03:28:58;;;;;;;2.25;0.80;;;25.70;77.50;;;;;;4215301;27;20038;-68
2022/03/29 03:31:21;;;;;;;0.63;0.40;;;25.70;77.50;;;;;;4225510;27;20438;-65
2022/03/29 03:33:43;;;;;;;1.45;0.60;;;25.70;77.50;;;;;;4217919;27;20038;-70
2022/03/29 03:36:06;;;;;;;1.98;0.60;;;25.70;77.50;;;;;;4216640;27;20702;-70
2022/03/29 03:38:28;;;;;;;1.55;0.68;;;25.70;77.50;;;;;;4225916;27;20050;-74
2022/03/29 03:40:51;;;;;;;1.55;0.60;;;25.80;77.60;;;;;;4217446;27;20053;-72
2022/03/29 03:43:13;;;;;;;1.52;0.70;;;25.80;77.80;;;;;;4198752;27;20041;-74
2022/03/29 03:45:36;;;;;;;1.02;0.50;;;25.80;77.70;;;;;;4221587;27;21475;-73
2022/03/29 03:47:59;;;;;;;0.70;0.40;;;25.80;77.70;;;;;;4204648;27;20057;-70
2022/03/29 03:50:22;;;;;;;0.40;0.30;;;25.80;77.70;;;;;;4211546;27;20109;-68
2022/03/29 03:52:44;;;;;;;0.55;0.50;;;25.80;77.70;;;;;;4222761;27;21744;-73
2022/03/29 03:55:08;;;;;;;0.50;0.50;;;25.80;77.70;;;;;;4221075;27;20095;-74
2022/03/29 03:57:30;;;;;;;0.70;0.57;;;25.80;77.60;;;;;;4201367;27;20046;-70
2022/03/29 03:59:55;;;;;;;0.70;0.40;;;25.90;77.70;;;;;;4222287;27;20574;-73
2022/03/29 04:02:19;;;;;;;1.17;0.43;;;25.80;77.80;;;;;;4215891;27;20045;-70
2022/03/29 04:04:42;;;;;;;1.10;0.50;;;25.90;77.90;;;;;;4178919;27;20047;-67
2022/03/29 04:07:05;;;;;;;0.40;0.40;;;25.90;78.00;;;;;;4191937;27;20061;-68
2022/03/29 04:09:28;;;;;;;1.00;0.50;;;25.90;78.00;;;;;;4181727;27;20051;-69
2022/03/29 04:11:51;;;;;;;0.67;0.53;;;25.90;78.10;;;;;;4182461;27;20043;-68
2022/03/29 04:14:13;;;;;;;0.50;0.40;;;25.90;78.10;;;;;;4189689;27;20046;-72
2022/03/29 04:16:36;;;;;;;0.25;0.25;;;25.90;78.10;;;;;;4178427;27;20039;-71
2022/03/29 04:18:58;;;;;;;4.38;0.75;;;25.90;78.10;;;;;;4175008;27;20058;-69
2022/03/29 04:21:21;;;;;;;0.45;0.38;;;26.00;78.00;;;;;;4183811;27;20050;-68
2022/03/29 04:23:44;;;;;;;0.47;0.47;;;26.00;78.00;;;;;;4173878;27;20035;-66
2022/03/29 04:26:06;;;;;;;2.27;0.50;;;26.00;77.90;;;;;;4176735;27;20043;-71
2022/03/29 04:28:31;;;;;;;1.55;0.50;;;26.00;77.90;;;;;;4188930;27;20042;-66
2022/03/29 04:30:55;;;;;;;0.70;0.40;;;26.00;77.90;;;;;;4178407;27;20050;-66
2022/03/29 04:33:17;;;;;;;0.75;0.40;;;26.00;77.80;;;;;;4177276;27;20039;-70
2022/03/29 04:35:40;;;;;;;0.80;0.35;;;26.00;77.90;;;;;;4188845;27;20406;-71
2022/03/29 04:38:02;;;;;;;0.90;0.50;;;26.00;78.00;;;;;;4181773;27;20043;-66
2022/03/29 04:40:25;;;;;;;0.43;0.30;;;26.00;78.20;;;;;;4178728;27;20430;-66
2022/03/29 04:42:52;;;;;;;0.73;0.40;;;26.00;78.10;;;;;;4188762;27;20043;-67
2022/03/29 04:45:16;;;;;;;1.20;0.40;;;26.10;78.10;;;;;;4178780;27;20055;-67
2022/03/29 04:47:40;;;;;;;5.47;0.70;;;26.10;78.10;;;;;;4184253;27;22293;-65
2022/03/29 04:50:03;;;;;;;0.60;0.50;;;26.10;78.00;;;;;;4180847;27;20038;-63
2022/03/29 04:52:26;;;;;;;1.08;0.65;;;26.10;77.90;;;;;;4180100;27;20035;-63
2022/03/29 04:54:48;;;;;;;2.05;0.60;;;26.10;77.90;;;;;;4187459;27;20057;-72
2022/03/29 04:57:11;;;;;;;2.63;0.70;;;26.10;77.80;;;;;;4189177;27;20044;-74
2022/03/29 04:59:33;;;;;;;0.90;0.50;;;26.10;78.00;;;;;;4184275;27;20071;-70
2022/03/29 05:01:56;;;;;;;2.47;0.80;;;26.10;77.90;;;;;;4172023;27;21217;-66
2022/03/29 05:04:19;;;;;;;0.52;0.32;;;26.20;77.90;;;;;;4219438;27;20779;-65
2022/03/29 05:06:41;;;;;;;1.30;0.50;;;26.20;77.80;;;;;;4215270;27;20046;-65
2022/03/29 05:09:04;;;;;;;0.45;0.40;;;26.20;77.70;;;;;;4216896;27;20030;-71
2022/03/29 05:11:27;;;;;;;2.00;0.52;;;26.20;77.80;;;;;;4223966;27;20042;-73
2022/03/29 05:13:50;;;;;;;0.98;0.55;;;26.20;77.90;;;;;;4206797;27;20031;-73
2022/03/29 05:16:13;;;;;;;0.77;0.50;;;26.20;77.90;;;;;;4223847;27;20084;-73
2022/03/29 05:18:35;;;;;;;0.88;0.38;;;26.20;77.80;;;;;;4229045;27;20030;-70
2022/03/29 05:20:58;;;;;;;0.75;0.47;;;26.20;77.80;;;;;;4219623;27;20034;-72
2022/03/29 05:23:22;;;;;;;0.93;0.55;;;26.20;77.90;;;;;;4219495;27;22189;-72
2022/03/29 05:25:45;;;;;;;0.30;0.30;;;26.20;77.90;;;;;;4228457;27;20050;-73
2022/03/29 05:28:09;;;;;;;1.38;0.40;;;26.20;77.80;;;;;;4222982;27;20571;-70
2022/03/29 05:30:31;;;;;;;2.08;0.52;;;26.20;77.80;;;;;;4225078;27;20436;-69
2022/03/29 05:33:00;;;;;;;0.70;0.40;;;26.20;77.90;;;;;;4228494;27;20126;-73
2022/03/29 05:35:22;;;;;;;0.68;0.40;;;26.20;78.00;;;;;;4216804;27;20116;-71
2022/03/29 05:37:45;;;;;;;0.40;0.40;;;26.30;78.00;;;;;;4230454;27;20057;-74
2022/03/29 05:40:09;;;;;;;0.60;0.50;;;26.20;78.00;;;;;;4207275;27;20126;-71
2022/03/29 05:42:32;;;;;;;0.40;0.40;;;26.20;78.00;;;;;;4205125;27;21268;-72
2022/03/29 05:44:54;;;;;;;2.47;0.68;;;26.30;78.00;;;;;;4228193;27;20555;-70
2022/03/29 05:49:57;;;;;;;2.60;0.57;;;26.30;77.80;;;;;;4229536;27;20034;-68
2022/03/29 05:52:21;;;;;;;1.38;0.77;;;26.30;77.80;;;;;;4222573;27;20038;-66
2022/03/29 05:54:45;;;;;;;3.22;0.80;;;26.30;77.80;;;;;;4226683;27;20033;-68
2022/03/29 05:57:08;;;;;;;2.75;0.70;;;26.30;77.80;;;;;;4228508;27;20079;-73
2022/03/29 05:59:30;;;;;;;1.95;0.70;;;26.30;77.90;;;;;;4224819;27;20723;-70
2022/03/29 06:01:52;;;;;;;0.68;0.40;;;26.30;77.90;;;;;;4227644;27;21343;-64
2022/03/29 06:04:17;;;;;;;1.83;0.40;;;26.30;77.90;;;;;;4232703;27;20492;-64
2022/03/29 06:06:41;;;;;;;6.65;1.17;;;26.40;78.00;;;;;;4213595;27;20099;-65
2022/03/29 06:09:05;;;;;;;;;;;26.40;77.90;;;;;;4233157;27;21476;-66
2022/03/29 06:11:28;;;;;;;0.90;0.50;;;26.40;77.80;;;;;;4233365;27;19910;-65
2022/03/29 06:13:51;;;;;;;1.30;0.40;;;26.40;77.70;;;;;;4233115;27;20081;-66
2022/03/29 06:16:13;;;;;;;4.47;0.70;;;26.40;77.70;;;;;;4221233;27;20069;-67
2022/03/29 06:18:36;;;;;;;0.60;0.57;;;26.40;77.60;;;;;;4232823;27;20049;-65
2022/03/29 06:20:59;;;;;;;2.58;0.50;;;26.40;77.60;;;;;;4234669;27;20392;-67
2022/03/29 06:23:21;;;;;;;1.17;0.70;;;26.40;77.60;;;;;;4240379;27;20396;-67
2022/03/29 06:25:46;;;;;;;0.73;0.40;;;26.40;77.80;;;;;;4242755;27;20046;-65
2022/03/29 06:28:10;;;;;;;1.17;0.40;;;26.40;77.70;;;;;;4239178;27;20042;-68
2022/03/29 06:30:36;;;;;;;0.98;0.57;;;26.40;77.70;;;;;;4245720;27;20061;-65
2022/03/29 06:33:00;;;;;;;0.75;0.55;;;26.40;77.70;;;;;;4242962;27;20041;-66
2022/03/29 06:35:49;;;;;;;1.70;0.45;;;26.40;77.60;;;;;;4245122;27;20031;-67
2022/03/29 06:38:12;;;;;;;8.77;0.95;;;26.50;77.70;;;;;;4233323;27;20446;-63
2022/03/29 06:40:35;;;;;;;0.52;0.43;;;26.50;77.70;;;;;;4216559;27;20030;-68
2022/03/29 06:43:00;;;;;;;0.57;0.43;;;26.50;77.70;;;;;;4213347;27;20045;-66
2022/03/29 06:45:22;;;;;;;0.68;0.40;;;26.50;77.60;;;;;;4217551;27;20729;-63
2022/03/29 06:47:46;;;;;;;1.17;0.77;;;26.50;77.60;;;;;;4219836;27;20460;-67
2022/03/29 06:50:10;;;;;;;1.05;0.28;;;26.50;77.60;;;;;;4215753;27;20049;-65
2022/03/29 06:52:38;;;;;;;0.95;0.60;;;26.50;77.70;;;;;;4225205;27;20049;-67
2022/03/29 06:55:00;;;;;;;1.17;0.70;;;26.50;77.70;;;;;;4213558;27;20041;-65
2022/03/29 06:57:23;;;;;;;1.45;0.75;;;26.50;77.80;;;;;;4218793;27;21364;-72
2022/03/29 06:59:45;;;;;;;0.63;0.63;;;26.50;78.00;;;;;;4227026;27;20042;-63
2022/03/29 07:02:08;;;;;;;1.35;0.70;;;26.50;78.00;;;;;;4214014;27;20038;-69
2022/03/29 07:04:30;;;;;;;1.70;0.70;;;26.50;78.00;;;;;;4181279;28;21835;-65
2022/03/29 07:06:52;;;;;;;1.60;0.70;;;26.50;78.00;;;;;;4192829;28;20808;-67
2022/03/29 07:11:56;;;;;;;1.90;0.80;;;26.50;77.90;;;;;;4187055;28;20715;-66
2022/03/29 07:14:18;;;;;;;1.02;0.70;;;26.50;77.90;;;;;;4178890;27;20527;-65
2022/03/29 07:16:43;;;;;;;1.67;0.97;;;26.50;77.90;;;;;;4186983;28;20047;-65
2022/03/29 07:19:08;;;;;;;1.48;0.70;;;26.50;77.90;;;;;;4184078;28;20285;-66
2022/03/29 07:21:30;;;;;;;1.25;0.60;;;26.50;78.50;;;;;;4181966;28;20745;-68
2022/03/29 07:23:53;;;;;;;0.40;0.40;;;26.50;77.90;;;;;;4189829;27;20251;-67
2022/03/29 07:26:16;;;;;;;2.22;1.00;;;26.50;78.00;;;;;;4178083;28;20051;-71
2022/03/29 07:28:39;;;;;;;6.20;0.82;;;26.50;78.00;;;;;;4184992;27;20035;-70
2022/03/29 07:31:01;;;;;;;2.28;0.70;;;26.50;78.00;;;;;;4193445;27;20634;-70
2022/03/29 07:33:24;;;;;;;0.57;0.47;;;26.50;78.10;;;;;;4184644;27;20083;-66
2022/03/29 07:35:47;;;;;;;2.93;0.73;;;26.50;78.20;;;;;;4181366;27;20039;-67
2022/03/29 07:38:10;;;;;;;0.90;0.43;;;26.50;78.10;;;;;;4189671;27;21313;-66
2022/03/29 07:40:32;;;;;;;1.05;0.60;;;26.50;78.10;;;;;;4184951;27;20078;-66
2022/03/29 07:42:55;;;;;;;2.13;0.73;;;26.50;78.00;;;;;;4182115;27;20047;-71
2022/03/29 07:45:19;;;;;;;0.45;0.30;;;26.50;78.10;;;;;;4191462;27;20118;-65
2022/03/29 07:47:42;;;;;;;1.52;0.50;;;26.60;78.10;;;;;;4185492;27;20027;-67
2022/03/29 07:50:10;;;;;;;2.65;0.60;;;26.50;78.00;;;;;;4180386;27;20129;-67
2022/03/29 07:52:33;;;;;;;1.40;0.50;;;26.60;78.20;;;;;;4196872;27;20027;-66
2022/03/29 07:54:55;;;;;;;;;;;26.60;78.10;;;;;;4183437;27;20065;-73
2022/03/29 07:57:18;;;;;;;1.13;0.52;;;26.60;78.10;;;;;;4192284;27;20781;-72
2022/03/29 07:59:41;;;;;;;3.78;0.55;;;26.60;78.10;;;;;;4198800;27;20035;-68
2022/03/29 08:02:05;;;;;;;1.20;0.40;;;26.60;78.20;;;;;;4189137;27;20046;-68
2022/03/29 08:04:28;;;;;;;1.17;0.60;;;26.60;78.20;;;;;;4224035;27;20290;-68
2022/03/29 08:06:50;;;;;;;6.50;0.60;;;26.60;78.20;;;;;;4232704;27;20038;-63
2022/03/29 08:09:14;;;;;;;1.27;0.75;;;26.60;78.20;;;;;;4223424;27;20184;-69
2022/03/29 08:11:38;;;;;;;1.33;0.52;;;26.60;78.20;;;;;;4224703;27;21257;-69
2022/03/29 08:14:01;;;;;;;4.28;0.70;;;26.60;78.20;;;;;;4225434;27;20042;-64
2022/03/29 08:16:23;;;;;;;3.80;0.47;;;26.60;78.20;;;;;;4218399;27;20041;-68
2022/03/29 08:18:46;;;;;;;5.07;0.90;;;26.60;78.10;;;;;;4222655;27;20050;-66
2022/03/29 08:23:49;;;;;;;0.80;0.50;;;26.60;78.00;;;;;;4229920;27;20107;-68
2022/03/29 08:26:12;;;;;;;0.90;0.73;;;26.60;78.10;;;;;;4224947;27;20568;-70
2022/03/29 08:28:34;;;;;;;0.52;0.40;;;26.60;78.10;;;;;;4223672;27;20068;-70
2022/03/29 08:30:57;;;;;;;1.27;0.60;;;26.60;78.10;;;;;;4233448;27;20046;-72
2022/03/29 08:33:20;;;;;;;0.93;0.60;;;26.60;78.00;;;;;;4224588;27;20057;-67
2022/03/29 08:35:44;;;;;;;1.30;0.47;;;26.60;78.10;;;;;;4224886;27;20065;-67
2022/03/29 08:38:07;;;;;;;3.38;0.60;;;26.60;78.00;;;;;;4234626;27;20149;-71
2022/03/29 08:40:29;;;;;;;0.93;0.60;;;26.60;78.00;;;;;;4227657;27;20041;-70
2022/03/29 08:42:54;;;;;;;1.75;0.70;;;26.60;78.00;;;;;;4225413;27;20060;-70
2022/03/29 08:45:18;;;;;;;1.25;0.70;;;26.60;78.00;;;;;;4234586;27;20076;-65
2022/03/29 08:47:41;;;;;;;;;;;26.60;78.00;;;;;;4228560;27;20388;-66
2022/03/29 08:50:06;;;;;;;1.13;0.65;;;26.60;78.00;;;;;;4228297;27;20760;-66
2022/03/29 08:52:29;;;;;;;0.60;0.60;;;26.60;78.00;;;;;;4233165;27;20049;-64
2022/03/29 08:54:51;;;;;;;0.65;0.45;;;26.60;78.00;;;;;;4225006;27;20063;-66
2022/03/29 08:57:14;;;;;;;0.40;0.40;;;26.60;77.90;;;;;;4228178;27;20826;-70
2022/03/29 08:59:37;;;;;;;0.90;0.65;;;26.60;78.00;;;;;;4234263;27;20069;-67
2022/03/29 09:02:18;;;;;;;1.65;0.68;;;26.50;77.90;;;;;;4219236;27;20133;-69
2022/03/29 09:04:40;;;;;;;1.40;0.70;;;26.50;78.00;;;;;;4233840;27;20047;-66
2022/03/29 09:07:03;;;;;;;0.95;0.70;;;26.60;78.00;;;;;;4234617;27;20034;-70
2022/03/29 09:09:31;;;;;;;0.90;0.60;;;26.50;77.90;;;;;;4241062;27;20473;-68
2022/03/29 09:11:56;;;;;;;0.70;0.57;;;26.50;77.90;;;;;;4234093;27;20117;-68
2022/03/29 09:14:18;;;;;;;0.63;0.60;;;26.60;78.00;;;;;;4232822;27;20050;-70
2022/03/29 09:16:41;;;;;;;1.85;0.70;;;26.60;77.90;;;;;;4229400;27;20468;-67
2022/03/29 09:19:03;;;;;;;1.00;0.50;;;26.50;77.80;;;;;;4224350;27;20207;-72
2022/03/29 09:21:27;;;;;;;0.60;0.60;;;26.50;77.90;;;;;;4229865;27;20784;-66
2022/03/29 09:24:11;;;;;;;0.50;0.40;;;26.50;77.90;;;;;;4230134;27;20038;-71
2022/03/29 09:26:34;;;;;;;0.88;0.60;;;26.50;77.90;;;;;;4235742;27;20555;-67
2022/03/29 09:28:56;;;;;;;0.80;0.65;;;26.50;78.00;;;;;;4225598;27;20450;-67
2022/03/29 09:31:22;;;;;;;1.02;0.85;;;26.50;77.90;;;;;;4225998;27;20161;-66
2022/03/29 09:33:45;;;;;;;0.95;0.80;;;26.50;77.90;;;;;;4227833;27;20807;-65
2022/03/29 09:36:10;;;;;;;1.23;0.88;;;26.50;77.90;;;;;;4222267;27;20778;-64
2022/03/29 09:38:36;;;;;;;1.45;0.57;;;26.50;77.90;;;;;;4229966;27;20038;-66
2022/03/29 09:41:00;;;;;;;1.42;0.80;;;26.50;77.80;;;;;;4228221;27;20159;-66
2022/03/29 09:43:24;;;;;;;1.60;0.60;;;26.50;77.90;;;;;;4223183;27;20038;-70
2022/03/29 09:45:51;;;;;;;1.52;0.80;;;26.50;77.90;;;;;;4234228;27;20045;-71
2022/03/29 09:48:40;;;;;;;2.78;0.68;;;26.50;77.80;;;;;;4225291;27;20053;-68
2022/03/29 09:51:09;;;;;;;1.75;0.63;;;26.50;77.80;;;;;;4225132;27;20438;-65
2022/03/29 09:53:53;;;;;;;2.10;0.70;;;26.50;77.80;;;;;;4227167;27;20042;-67
2022/03/29 09:56:24;;;;;;;1.48;0.50;;;26.50;77.90;;;;;;4227765;27;20152;-63
2022/03/29 09:58:46;;;;;;;0.57;0.52;;;26.50;77.80;;;;;;4229865;27;20034;-66
2022/03/29 10:01:25;;;;;;;0.38;0.38;;;26.50;77.80;;;;;;4230565;27;20045;-66
2022/03/29 10:03:49;;;;;;;1.17;0.65;;;26.50;77.80;;;;;;4232436;27;20092;-66
2022/03/29 10:06:12;;;;;;;1.83;0.57;;;26.50;77.80;;;;;;4225370;27;20058;-68
2022/03/29 10:11:22;;;;;;;0.95;0.60;;;26.50;77.80;;;;;;4223658;27;20102;-68
2022/03/29 10:13:46;;;;;;;0.98;0.45;;;26.50;77.90;;;;;;4231028;27;20473;-66
2022/03/29 10:16:12;;;;;;;;;;;26.50;77.90;;;;;;4225654;27;20350;-67
2022/03/29 10:18:35;;;;;;;0.93;0.50;;;26.50;77.90;;;;;;4228663;27;19972;-67
2022/03/29 10:21:00;;;;;;;1.65;0.47;;;26.50;78.00;;;;;;4228966;27;20038;-65
2022/03/29 10:23:24;;;;;;;1.20;0.80;;;26.50;78.00;;;;;;4229606;27;20659;-65
2022/03/29 10:25:46;;;;;;;;;;;26.50;77.90;;;;;;4237968;27;20043;-67
2022/03/29 10:28:10;;;;;;;0.98;0.57;;;26.50;77.90;;;;;;4235709;27;19921;-70
2022/03/29 10:30:32;;;;;;;;;;;26.50;77.90;;;;;;4229854;27;20045;-68
2022/03/29 10:33:14;;;;;;;0.95;0.60;;;26.50;77.90;;;;;;4240721;27;20943;-70
2022/03/29 10:35:59;;;;;;;1.00;0.60;;;26.50;77.80;;;;;;4233388;27;20042;-68
2022/03/29 10:38:22;;;;;;;1.38;0.70;;;26.50;77.80;;;;;;4234008;27;20249;-67
2022/03/29 10:40:59;;;;;;;1.00;0.80;;;26.50;77.80;;;;;;4243207;27;20053;-69
2022/03/29 10:43:30;;;;;;;1.75;0.60;;;26.50;77.80;;;;;;4237929;27;20595;-65
2022/03/29 10:45:53;;;;;;;0.80;0.40;;;26.40;77.60;;;;;;4242871;27;20053;-68
2022/03/29 10:48:18;;;;;;;0.68;0.55;;;26.40;77.70;;;;;;4242394;27;20106;-71
2022/03/29 10:50:57;;;;;;;0.50;0.40;;;26.50;77.70;;;;;;4222454;27;20038;-72
2022/03/29 10:53:31;;;;;;;1.00;0.70;;;26.40;77.60;;;;;;4240337;27;20042;-69
2022/03/29 10:56:22;;;;;;;0.65;0.50;;;26.40;77.60;;;;;;4239413;27;20114;-71
2022/03/29 10:59:04;;;;;;;0.50;0.50;;;26.40;77.60;;;;;;4219424;27;20999;-70
2022/03/29 11:01:27;;;;;;;0.43;0.35;;;26.40;77.60;;;;;;4230246;27;20038;-66
2022/03/29 11:04:02;;;;;;;2.50;0.57;;;26.40;77.60;;;;;;4233185;27;20829;-67
2022/03/29 11:06:25;;;;;;;1.55;0.45;;;26.40;77.60;;;;;;4227948;27;20054;-65
2022/03/29 11:08:48;;;;;;;1.73;0.60;;;26.40;77.50;;;;;;4231387;27;20108;-69
2022/03/29 11:11:36;;;;;;;1.35;0.45;;;26.40;77.50;;;;;;4230238;27;20034;-68
2022/03/29 11:14:31;;;;;;;3.17;0.80;;;26.40;77.50;;;;;;4226825;27;20086;-68
2022/03/29 11:17:10;;;;;;;1.05;0.57;;;26.40;77.00;;;;;;4216241;27;20038;-68
2022/03/29 11:19:48;;;;;;;1.13;0.55;;;26.40;76.70;;;;;;4208571;27;20081;-69
2022/03/29 11:22:43;;;;;;;1.20;0.68;;;26.30;76.50;;;;;;4226328;27;20658;-67
2022/03/29 11:25:06;;;;;;;;;;;26.30;76.50;;;;;;4226056;27;20050;-66
2022/03/29 11:27:32;;;;;;;8.73;1.25;;;26.30;76.50;;;;;;4207614;27;19915;-66
2022/03/29 11:29:56;;;;;;;3.35;0.80;;;26.30;76.60;;;;;;4226246;27;20053;-64
2022/03/29 11:32:18;;;;;;;2.45;0.88;;;26.30;76.80;;;;;;4231602;27;20040;-67
2022/03/29 11:34:41;;;;;;;3.45;1.00;;;26.20;76.90;;;;;;4224523;27;20458;-69
2022/03/29 11:37:04;;;;;;;2.65;0.75;;;26.20;76.90;;;;;;4225374;27;20034;-65
2022/03/29 11:39:28;;;;;;;3.03;0.82;;;26.20;77.00;;;;;;4231051;27;20026;-65
2022/03/29 11:41:54;;;;;;;0.95;0.60;;;26.20;77.20;;;;;;4225361;27;20393;-70
2022/03/29 11:44:16;;;;;;;1.17;0.60;;;26.20;77.20;;;;;;4226080;27;20034;-69
2022/03/29 11:46:52;;;;;;;2.08;0.60;;;26.20;77.30;;;;;;4231486;27;20038;-71
2022/03/29 11:49:15;;;;;;;2.50;0.60;;;26.20;77.30;;;;;;4224898;27;20037;-70
2022/03/29 11:51:37;;;;;;;3.45;0.40;;;26.10;77.30;;;;;;4231700;27;20365;-69
2022/03/29 11:54:00;;;;;;;2.20;0.70;;;26.20;77.50;;;;;;4225318;27;20114;-66
2022/03/29 11:56:22;;;;;;;1.02;0.40;;;26.10;77.40;;;;;;4224703;27;20157;-71
2022/03/29 11:58:52;;;;;;;0.80;0.40;;;26.10;77.50;;;;;;4230252;27;20060;-66
2022/03/29 12:01:25;;;;;;;0.65;0.40;;;26.10;77.50;;;;;;4223530;27;20106;-66
2022/03/29 12:03:52;;;;;;;4.60;0.70;;;26.10;77.50;;;;;;4228977;27;21462;-65
2022/03/29 12:06:24;;;;;;;2.13;0.60;;;26.10;77.60;;;;;;4223401;27;20046;-65
2022/03/29 12:08:55;;;;;;;4.85;0.73;;;26.10;77.80;;;;;;4208783;27;20424;-65
2022/03/29 12:11:29;;;;;;;5.43;0.70;;;26.10;77.90;;;;;;4222464;27;20054;-63
2022/03/29 12:14:07;;;;;;;1.30;0.40;;;26.10;77.90;;;;;;4220262;27;20041;-62
2022/03/29 12:16:32;;;;;;;5.05;0.80;;;26.10;77.90;;;;;;4223939;27;20112;-66
2022/03/29 12:18:55;;;;;;;3.80;0.65;;;26.10;78.00;;;;;;4219381;27;20110;-64
2022/03/29 12:21:21;;;;;;;1.85;0.60;;;26.10;78.00;;;;;;4231760;27;20069;-64
2022/03/29 12:23:44;;;;;;;1.98;0.60;;;26.10;78.00;;;;;;4219325;27;20157;-64
2022/03/29 12:26:08;;;;;;;2.40;0.80;;;26.10;78.00;;;;;;4220468;27;21496;-67
2022/03/29 12:28:31;;;;;;;1.80;0.80;;;26.10;78.10;;;;;;4224833;27;20038;-63
2022/03/29 12:30:55;;;;;;;;;;;26.10;78.10;;;;;;4220149;27;20072;-66
2022/03/29 12:33:17;;;;;;;3.63;0.52;;;26.10;78.00;;;;;;4220017;27;21365;-67
2022/03/29 12:35:40;;;;;;;1.25;0.50;;;26.10;78.00;;;;;;4228961;27;21034;-65
2022/03/29 12:38:05;;;;;;;1.13;0.50;;;26.10;78.00;;;;;;4223530;27;20041;-67
2022/03/29 12:40:27;;;;;;;4.40;0.73;;;26.10;77.90;;;;;;4224010;27;22408;-65
2022/03/29 12:43:01;;;;;;;6.65;0.65;;;26.10;77.90;;;;;;4228858;27;20042;-65
2022/03/29 12:45:24;;;;;;;2.67;0.68;;;26.00;77.80;;;;;;4224029;27;20078;-65
2022/03/29 12:47:48;;;;;;;1.95;1.05;;;26.00;77.90;;;;;;4227225;27;20042;-62
2022/03/29 12:50:10;;;;;;;4.75;0.80;;;26.00;78.60;;;;;;4219075;27;20155;-63